sensor_id;sensor_type;location;lat;lon;timestamp;temperature;humidity
72576;DHT22;60613;48.658;2.328;2022-10-23T06:02:32;21.30;61.40
72576;DHT22;60613;48.658;2.328;2022-10-23T06:04:58;21.20;62.40
72576;DHT22;60613;48.658;2.328;2022-10-23T06:07:25;21.10;62.50
72576;DHT22;60613;48.658;2.328;2022-10-23T06:09:51;21.00;62.70
72576;DHT22;60613;48.658;2.328;2022-10-23T06:12:18;20.90;62.80
72576;DHT22;60613;48.658;2.328;2022-10-23T06:14:44;20.90;62.80
72576;DHT22;60613;48.658;2.328;2022-10-23T06:17:09;20.90;63.00
72576;DHT22;60613;48.658;2.328;2022-10-23T06:19:35;20.80;63.10
72576;DHT22;60613;48.658;2.328;2022-10-23T06:22:00;20.80;63.30
72576;DHT22;60613;48.658;2.328;2022-10-23T06:24:26;20.70;63.40
72576;DHT22;60613;48.658;2.328;2022-10-23T06:26:52;20.70;63.50
72576;DHT22;60613;48.658;2.328;2022-10-23T06:29:17;20.70;63.60
72576;DHT22;60613;48.658;2.328;2022-10-23T06:31:43;20.60;63.90
72576;DHT22;60613;48.658;2.328;2022-10-23T06:34:10;20.70;64.60
72576;DHT22;60613;48.658;2.328;2022-10-23T06:36:36;20.80;64.40
72576;DHT22;60613;48.658;2.328;2022-10-23T06:39:03;21.00;64.20
72576;DHT22;60613;48.658;2.328;2022-10-23T06:41:29;21.10;64.00
72576;DHT22;60613;48.658;2.328;2022-10-23T06:43:55;21.10;63.60
72576;DHT22;60613;48.658;2.328;2022-10-23T06:46:20;21.20;63.70
72576;DHT22;60613;48.658;2.328;2022-10-23T06:48:46;21.30;63.60
72576;DHT22;60613;48.658;2.328;2022-10-23T06:51:15;21.30;63.40
72576;DHT22;60613;48.658;2.328;2022-10-23T06:53:42;21.30;63.10
72576;DHT22;60613;48.658;2.328;2022-10-23T06:56:09;21.30;64.30
72576;DHT22;60613;48.658;2.328;2022-10-23T06:58:37;21.40;63.40
72576;DHT22;60613;48.658;2.328;2022-10-23T07:01:05;21.40;63.70
72576;DHT22;60613;48.658;2.328;2022-10-23T07:03:31;21.50;63.70
72576;DHT22;60613;48.658;2.328;2022-10-23T07:06:01;21.60;63.60
72576;DHT22;60613;48.658;2.328;2022-10-23T07:08:28;21.70;62.50
72576;DHT22;60613;48.658;2.328;2022-10-23T07:10:53;21.70;62.80
72576;DHT22;60613;48.658;2.328;2022-10-23T07:13:19;21.70;63.20
72576;DHT22;60613;48.658;2.328;2022-10-23T07:15:44;21.70;62.80
72576;DHT22;60613;48.658;2.328;2022-10-23T07:18:10;21.70;63.10
72576;DHT22;60613;48.658;2.328;2022-10-23T07:20:41;21.80;63.00
72576;DHT22;60613;48.658;2.328;2022-10-23T07:23:07;21.90;62.80
72576;DHT22;60613;48.658;2.328;2022-10-23T07:25:33;21.90;62.50
72576;DHT22;60613;48.658;2.328;2022-10-23T07:27:59;22.00;63.20
72576;DHT22;60613;48.658;2.328;2022-10-23T07:30:24;21.90;62.40
72576;DHT22;60613;48.658;2.328;2022-10-23T07:32:50;21.90;62.40
72576;DHT22;60613;48.658;2.328;2022-10-23T07:35:16;21.90;62.20
72576;DHT22;60613;48.658;2.328;2022-10-23T07:37:42;22.00;62.30
72576;DHT22;60613;48.658;2.328;2022-10-23T07:40:08;22.00;62.20
72576;DHT22;60613;48.658;2.328;2022-10-23T07:42:34;22.00;62.40
72576;DHT22;60613;48.658;2.328;2022-10-23T07:45:00;22.00;61.90
72576;DHT22;60613;48.658;2.328;2022-10-23T07:47:25;22.00;62.30
72576;DHT22;60613;48.658;2.328;2022-10-23T07:49:51;22.00;63.30
72576;DHT22;60613;48.658;2.328;2022-10-23T07:52:17;22.00;62.80
72576;DHT22;60613;48.658;2.328;2022-10-23T07:54:42;22.00;62.70
72576;DHT22;60613;48.658;2.328;2022-10-23T07:57:09;22.00;62.60
72576;DHT22;60613;48.658;2.328;2022-10-23T07:59:36;22.00;62.40
72576;DHT22;60613;48.658;2.328;2022-10-23T08:02:03;22.10;63.90
72576;DHT22;60613;48.658;2.328;2022-10-23T08:04:28;22.10;62.50
72576;DHT22;60613;48.658;2.328;2022-10-23T08:06:54;22.10;62.10
72576;DHT22;60613;48.658;2.328;2022-10-23T08:09:21;22.10;62.20
72576;DHT22;60613;48.658;2.328;2022-10-23T08:11:47;22.10;61.80
72576;DHT22;60613;48.658;2.328;2022-10-23T08:14:12;22.10;62.00
72576;DHT22;60613;48.658;2.328;2022-10-23T08:16:38;22.10;61.70
72576;DHT22;60613;48.658;2.328;2022-10-23T08:19:06;22.10;61.70
72576;DHT22;60613;48.658;2.328;2022-10-23T08:21:32;22.20;61.50
72576;DHT22;60613;48.658;2.328;2022-10-23T08:23:59;22.10;61.60
72576;DHT22;60613;48.658;2.328;2022-10-23T08:26:25;22.10;61.40
72576;DHT22;60613;48.658;2.328;2022-10-23T08:28:54;22.10;61.20
72576;DHT22;60613;48.658;2.328;2022-10-23T08:31:21;22.10;61.30
72576;DHT22;60613;48.658;2.328;2022-10-23T08:33:46;22.10;61.10
72576;DHT22;60613;48.658;2.328;2022-10-23T08:36:24;22.20;61.10
72576;DHT22;60613;48.658;2.328;2022-10-23T08:38:51;22.10;61.10
72576;DHT22;60613;48.658;2.328;2022-10-23T08:41:46;22.10;61.10
72576;DHT22;60613;48.658;2.328;2022-10-23T08:44:26;22.10;61.10
72576;DHT22;60613;48.658;2.328;2022-10-23T08:47:15;22.10;60.70
72576;DHT22;60613;48.658;2.328;2022-10-23T08:52:25;22.10;60.70
72576;DHT22;60613;48.658;2.328;2022-10-23T08:57:37;22.20;60.70
72576;DHT22;60613;48.658;2.328;2022-10-23T09:00:15;22.20;61.20
72576;DHT22;60613;48.658;2.328;2022-10-23T09:02:47;22.30;61.20
72576;DHT22;60613;48.658;2.328;2022-10-23T09:05:16;22.30;60.90
72576;DHT22;60613;48.658;2.328;2022-10-23T09:10:57;22.30;61.20
72576;DHT22;60613;48.658;2.328;2022-10-23T09:18:46;22.40;62.20
72576;DHT22;60613;48.658;2.328;2022-10-23T09:21:13;22.30;61.80
72576;DHT22;60613;48.658;2.328;2022-10-23T09:23:38;22.30;61.20
72576;DHT22;60613;48.658;2.328;2022-10-23T09:26:16;22.30;61.00
72576;DHT22;60613;48.658;2.328;2022-10-23T09:28:46;22.20;61.00
72576;DHT22;60613;48.658;2.328;2022-10-23T09:31:12;22.20;61.20
72576;DHT22;60613;48.658;2.328;2022-10-23T09:33:38;22.10;61.10
72576;DHT22;60613;48.658;2.328;2022-10-23T09:36:18;22.10;61.10
72576;DHT22;60613;48.658;2.328;2022-10-23T09:44:18;22.20;61.20
72576;DHT22;60613;48.658;2.328;2022-10-23T09:46:53;22.10;61.30
72576;DHT22;60613;48.658;2.328;2022-10-23T09:49:23;22.10;61.50
72576;DHT22;60613;48.658;2.328;2022-10-23T09:52:38;22.10;61.40
72576;DHT22;60613;48.658;2.328;2022-10-23T09:54:50;22.10;61.80
72576;DHT22;60613;48.658;2.328;2022-10-23T09:59:56;22.10;61.70
72576;DHT22;60613;48.658;2.328;2022-10-23T10:02:32;22.10;61.40
72576;DHT22;60613;48.658;2.328;2022-10-23T10:04:58;22.10;61.80
72576;DHT22;60613;48.658;2.328;2022-10-23T10:07:29;22.10;62.00
72576;DHT22;60613;48.658;2.328;2022-10-23T10:09:56;22.10;61.70
72576;DHT22;60613;48.658;2.328;2022-10-23T10:23:00;22.10;62.00
72576;DHT22;60613;48.658;2.328;2022-10-23T10:31:05;22.30;61.40
72576;DHT22;60613;48.658;2.328;2022-10-23T10:33:53;22.30;62.50
72576;DHT22;60613;48.658;2.328;2022-10-23T10:36:54;22.30;61.50
72576;DHT22;60613;48.658;2.328;2022-10-23T10:39:56;22.40;61.30
72576;DHT22;60613;48.658;2.328;2022-10-23T10:45:29;22.40;61.20
72576;DHT22;60613;48.658;2.328;2022-10-23T10:48:10;22.40;61.20
72576;DHT22;60613;48.658;2.328;2022-10-23T10:55:48;22.40;61.10
72576;DHT22;60613;48.658;2.328;2022-10-23T10:58:37;22.40;61.10
72576;DHT22;60613;48.658;2.328;2022-10-23T11:03:56;22.50;61.20
72576;DHT22;60613;48.658;2.328;2022-10-23T11:06:28;22.50;61.30
72576;DHT22;60613;48.658;2.328;2022-10-23T11:08:54;22.50;61.30
72576;DHT22;60613;48.658;2.328;2022-10-23T11:11:32;22.50;61.30
72576;DHT22;60613;48.658;2.328;2022-10-23T11:14:02;22.50;61.30
72576;DHT22;60613;48.658;2.328;2022-10-23T11:16:29;22.50;61.30
72576;DHT22;60613;48.658;2.328;2022-10-23T11:19:29;22.60;61.30
72576;DHT22;60613;48.658;2.328;2022-10-23T11:22:12;22.60;60.80
72576;DHT22;60613;48.658;2.328;2022-10-23T11:27:54;22.70;61.40
72576;DHT22;60613;48.658;2.328;2022-10-23T11:30:33;22.80;62.90
72576;DHT22;60613;48.658;2.328;2022-10-23T11:38:28;22.80;62.30
72576;DHT22;60613;48.658;2.328;2022-10-23T11:40:59;22.80;63.70
72576;DHT22;60613;48.658;2.328;2022-10-23T11:46:28;22.90;63.10
72576;DHT22;60613;48.658;2.328;2022-10-23T11:48:55;22.90;62.90
72576;DHT22;60613;48.658;2.328;2022-10-23T12:04:48;22.80;62.50
72576;DHT22;60613;48.658;2.328;2022-10-23T12:07:22;22.80;61.50
72576;DHT22;60613;48.658;2.328;2022-10-23T12:10:06;22.80;61.00
72576;DHT22;60613;48.658;2.328;2022-10-23T12:12:34;22.80;61.40
72576;DHT22;60613;48.658;2.328;2022-10-23T12:15:16;22.70;61.80
72576;DHT22;60613;48.658;2.328;2022-10-23T12:17:44;22.70;61.90
72576;DHT22;60613;48.658;2.328;2022-10-23T12:23:01;22.70;62.00
72576;DHT22;60613;48.658;2.328;2022-10-23T12:37:33;22.70;62.00
72576;DHT22;60613;48.658;2.328;2022-10-23T12:40:07;22.70;62.00
72576;DHT22;60613;48.658;2.328;2022-10-23T12:42:34;22.70;61.90
72576;DHT22;60613;48.658;2.328;2022-10-23T12:47:39;22.70;61.80
72576;DHT22;60613;48.658;2.328;2022-10-23T12:52:53;22.70;61.80
72576;DHT22;60613;48.658;2.328;2022-10-23T12:55:19;22.70;61.80
72576;DHT22;60613;48.658;2.328;2022-10-23T12:57:45;22.70;61.70
72576;DHT22;60613;48.658;2.328;2022-10-23T13:00:18;22.70;61.70
72576;DHT22;60613;48.658;2.328;2022-10-23T13:02:44;22.70;61.40
72576;DHT22;60613;48.658;2.328;2022-10-23T13:05:15;22.70;61.50
72576;DHT22;60613;48.658;2.328;2022-10-23T13:07:46;22.70;61.40
72576;DHT22;60613;48.658;2.328;2022-10-23T13:10:17;22.70;61.40
72576;DHT22;60613;48.658;2.328;2022-10-23T13:12:49;22.70;61.40
72576;DHT22;60613;48.658;2.328;2022-10-23T13:15:18;22.70;61.40
72576;DHT22;60613;48.658;2.328;2022-10-23T13:17:59;22.70;61.40
72576;DHT22;60613;48.658;2.328;2022-10-23T13:20:25;22.70;61.40
72576;DHT22;60613;48.658;2.328;2022-10-23T13:26:02;22.70;61.40
72576;DHT22;60613;48.658;2.328;2022-10-23T13:33:41;22.80;61.30
72576;DHT22;60613;48.658;2.328;2022-10-23T13:38:40;22.70;61.10
72576;DHT22;60613;48.658;2.328;2022-10-23T13:41:18;22.80;61.00
72576;DHT22;60613;48.658;2.328;2022-10-23T13:43:45;22.80;61.00
72576;DHT22;60613;48.658;2.328;2022-10-23T13:46:16;22.80;61.00
72576;DHT22;60613;48.658;2.328;2022-10-23T13:48:42;22.80;61.00
72576;DHT22;60613;48.658;2.328;2022-10-23T13:53:44;22.80;60.90
72576;DHT22;60613;48.658;2.328;2022-10-23T13:56:11;22.80;60.80
72576;DHT22;60613;48.658;2.328;2022-10-23T13:58:38;22.80;60.80
72576;DHT22;60613;48.658;2.328;2022-10-23T14:01:04;22.80;61.70
72576;DHT22;60613;48.658;2.328;2022-10-23T14:03:30;22.80;60.80
72576;DHT22;60613;48.658;2.328;2022-10-23T14:05:55;22.80;60.70
72576;DHT22;60613;48.658;2.328;2022-10-23T14:08:21;22.80;60.80
72576;DHT22;60613;48.658;2.328;2022-10-23T14:10:47;22.80;60.70
72576;DHT22;60613;48.658;2.328;2022-10-23T14:13:13;22.80;60.70
72576;DHT22;60613;48.658;2.328;2022-10-23T14:15:39;22.80;60.70
72576;DHT22;60613;48.658;2.328;2022-10-23T14:18:04;22.80;61.70
72576;DHT22;60613;48.658;2.328;2022-10-23T14:20:30;22.80;61.70
72576;DHT22;60613;48.658;2.328;2022-10-23T14:22:56;22.80;60.50
72576;DHT22;60613;48.658;2.328;2022-10-23T14:25:22;22.80;60.70
72576;DHT22;60613;48.658;2.328;2022-10-23T14:27:48;22.80;60.60
72576;DHT22;60613;48.658;2.328;2022-10-23T14:30:13;22.80;60.70
72576;DHT22;60613;48.658;2.328;2022-10-23T14:32:39;22.80;60.60
72576;DHT22;60613;48.658;2.328;2022-10-23T14:35:05;22.80;60.50
72576;DHT22;60613;48.658;2.328;2022-10-23T14:37:32;22.80;60.50
72576;DHT22;60613;48.658;2.328;2022-10-23T14:39:59;22.80;60.50
72576;DHT22;60613;48.658;2.328;2022-10-23T14:42:25;22.90;60.60
72576;DHT22;60613;48.658;2.328;2022-10-23T14:44:51;22.80;60.50
72576;DHT22;60613;48.658;2.328;2022-10-23T14:47:17;22.80;60.50
72576;DHT22;60613;48.658;2.328;2022-10-23T14:49:45;22.90;60.40
72576;DHT22;60613;48.658;2.328;2022-10-23T14:52:11;22.90;60.40
72576;DHT22;60613;48.658;2.328;2022-10-23T14:54:37;22.90;61.40
72576;DHT22;60613;48.658;2.328;2022-10-23T14:57:03;22.90;60.30
72576;DHT22;60613;48.658;2.328;2022-10-23T14:59:29;22.90;60.30
72576;DHT22;60613;48.658;2.328;2022-10-23T15:01:54;22.90;61.30
72576;DHT22;60613;48.658;2.328;2022-10-23T15:04:20;22.90;60.30
72576;DHT22;60613;48.658;2.328;2022-10-23T15:06:46;22.90;60.40
72576;DHT22;60613;48.658;2.328;2022-10-23T15:09:12;22.90;60.40
72576;DHT22;60613;48.658;2.328;2022-10-23T15:11:38;22.90;60.30
72576;DHT22;60613;48.658;2.328;2022-10-23T15:14:04;22.90;60.30
72576;DHT22;60613;48.658;2.328;2022-10-23T15:16:29;22.90;60.30
72576;DHT22;60613;48.658;2.328;2022-10-23T15:18:55;22.90;60.20
72576;DHT22;60613;48.658;2.328;2022-10-23T15:21:21;22.90;60.70
72576;DHT22;60613;48.658;2.328;2022-10-23T15:23:47;22.90;60.90
72576;DHT22;60613;48.658;2.328;2022-10-23T15:26:18;22.90;60.80
72576;DHT22;60613;48.658;2.328;2022-10-23T15:28:53;22.90;60.60
72576;DHT22;60613;48.658;2.328;2022-10-23T15:33:57;23.00;60.80
72576;DHT22;60613;48.658;2.328;2022-10-23T15:36:24;22.90;60.60
72576;DHT22;60613;48.658;2.328;2022-10-23T15:38:50;22.90;61.30
72576;DHT22;60613;48.658;2.328;2022-10-23T15:41:21;22.90;60.60
72576;DHT22;60613;48.658;2.328;2022-10-23T15:43:47;22.90;60.60
72576;DHT22;60613;48.658;2.328;2022-10-23T15:46:13;22.90;60.10
72576;DHT22;60613;48.658;2.328;2022-10-23T15:48:38;22.90;59.80
72576;DHT22;60613;48.658;2.328;2022-10-23T15:51:04;22.90;59.90
72576;DHT22;60613;48.658;2.328;2022-10-23T15:53:29;22.80;60.00
72576;DHT22;60613;48.658;2.328;2022-10-23T15:55:55;22.80;60.10
72576;DHT22;60613;48.658;2.328;2022-10-23T15:58:23;22.80;59.90
72576;DHT22;60613;48.658;2.328;2022-10-23T16:00:49;22.90;60.00
72576;DHT22;60613;48.658;2.328;2022-10-23T16:03:15;22.90;60.20
72576;DHT22;60613;48.658;2.328;2022-10-23T16:05:40;22.80;60.30
72576;DHT22;60613;48.658;2.328;2022-10-23T16:08:06;22.80;60.40
72576;DHT22;60613;48.658;2.328;2022-10-23T16:10:31;22.90;60.50
72576;DHT22;60613;48.658;2.328;2022-10-23T16:12:57;22.90;60.60
72576;DHT22;60613;48.658;2.328;2022-10-23T16:15:23;22.90;60.30
72576;DHT22;60613;48.658;2.328;2022-10-23T16:17:48;22.90;60.10
72576;DHT22;60613;48.658;2.328;2022-10-23T16:20:14;22.90;60.00
72576;DHT22;60613;48.658;2.328;2022-10-23T16:22:40;23.00;60.20
72576;DHT22;60613;48.658;2.328;2022-10-23T16:25:06;22.90;60.00
72576;DHT22;60613;48.658;2.328;2022-10-23T16:27:32;23.00;60.00
72576;DHT22;60613;48.658;2.328;2022-10-23T16:29:57;23.00;60.30
72576;DHT22;60613;48.658;2.328;2022-10-23T16:32:23;22.90;60.20
72576;DHT22;60613;48.658;2.328;2022-10-23T16:34:48;22.90;60.00
72576;DHT22;60613;48.658;2.328;2022-10-23T16:37:14;22.90;60.00
72576;DHT22;60613;48.658;2.328;2022-10-23T16:39:40;23.00;60.00
72576;DHT22;60613;48.658;2.328;2022-10-23T16:42:06;23.00;60.00
72576;DHT22;60613;48.658;2.328;2022-10-23T16:44:31;23.00;60.00
72576;DHT22;60613;48.658;2.328;2022-10-23T16:46:57;23.00;60.00
72576;DHT22;60613;48.658;2.328;2022-10-23T16:49:22;23.00;60.00
72576;DHT22;60613;48.658;2.328;2022-10-23T16:51:48;23.00;60.00
72576;DHT22;60613;48.658;2.328;2022-10-23T16:54:14;23.00;59.80
72576;DHT22;60613;48.658;2.328;2022-10-23T16:56:40;23.00;59.70
72576;DHT22;60613;48.658;2.328;2022-10-23T16:59:05;23.00;59.80
72576;DHT22;60613;48.658;2.328;2022-10-23T17:01:31;23.00;61.00
72576;DHT22;60613;48.658;2.328;2022-10-23T17:03:57;23.10;59.70
72576;DHT22;60613;48.658;2.328;2022-10-23T17:06:29;23.10;59.40
72576;DHT22;60613;48.658;2.328;2022-10-23T17:08:56;23.20;59.40
72576;DHT22;60613;48.658;2.328;2022-10-23T17:11:30;23.20;59.40
72576;DHT22;60613;48.658;2.328;2022-10-23T17:13:59;23.20;59.60
72576;DHT22;60613;48.658;2.328;2022-10-23T17:16:37;23.10;59.50
72576;DHT22;60613;48.658;2.328;2022-10-23T17:19:04;23.00;59.90
72576;DHT22;60613;48.658;2.328;2022-10-23T17:21:35;23.00;60.10
72576;DHT22;60613;48.658;2.328;2022-10-23T17:24:01;23.00;60.30
72576;DHT22;60613;48.658;2.328;2022-10-23T17:26:28;23.00;60.20
72576;DHT22;60613;48.658;2.328;2022-10-23T17:28:56;23.00;60.20
72576;DHT22;60613;48.658;2.328;2022-10-23T17:31:30;22.90;60.20
72576;DHT22;60613;48.658;2.328;2022-10-23T17:33:58;22.90;60.00
72576;DHT22;60613;48.658;2.328;2022-10-23T17:36:27;22.90;60.70
72576;DHT22;60613;48.658;2.328;2022-10-23T17:38:54;22.80;60.30
72576;DHT22;60613;48.658;2.328;2022-10-23T17:41:21;22.80;60.70
72576;DHT22;60613;48.658;2.328;2022-10-23T17:43:48;22.90;60.50
72576;DHT22;60613;48.658;2.328;2022-10-23T17:46:14;22.80;60.50
72576;DHT22;60613;48.658;2.328;2022-10-23T17:48:40;22.80;60.50
72576;DHT22;60613;48.658;2.328;2022-10-23T17:53:39;22.80;60.30
72576;DHT22;60613;48.658;2.328;2022-10-23T17:56:06;22.80;60.30
72576;DHT22;60613;48.658;2.328;2022-10-23T17:58:33;22.80;60.50
72576;DHT22;60613;48.658;2.328;2022-10-23T18:01:09;22.80;60.30
72576;DHT22;60613;48.658;2.328;2022-10-23T18:03:35;22.80;60.50
72576;DHT22;60613;48.658;2.328;2022-10-23T18:06:23;22.80;60.40
72576;DHT22;60613;48.658;2.328;2022-10-23T18:08:50;22.80;60.60
72576;DHT22;60613;48.658;2.328;2022-10-23T18:11:16;22.80;60.60
72576;DHT22;60613;48.658;2.328;2022-10-23T18:13:42;22.80;60.70
72576;DHT22;60613;48.658;2.328;2022-10-23T18:16:09;22.80;60.80
72576;DHT22;60613;48.658;2.328;2022-10-23T18:18:36;22.80;60.80
72576;DHT22;60613;48.658;2.328;2022-10-23T18:21:03;22.80;60.60
72576;DHT22;60613;48.658;2.328;2022-10-23T18:23:30;22.90;60.50
72576;DHT22;60613;48.658;2.328;2022-10-23T18:25:56;22.80;60.00
72576;DHT22;60613;48.658;2.328;2022-10-23T18:28:22;22.90;60.50
72576;DHT22;60613;48.658;2.328;2022-10-23T18:30:48;22.90;60.40
72576;DHT22;60613;48.658;2.328;2022-10-23T18:33:15;22.90;60.30
72576;DHT22;60613;48.658;2.328;2022-10-23T18:35:41;22.90;60.20
72576;DHT22;60613;48.658;2.328;2022-10-23T18:38:07;23.00;60.30
72576;DHT22;60613;48.658;2.328;2022-10-23T18:40:35;23.00;60.80
72576;DHT22;60613;48.658;2.328;2022-10-23T18:43:01;23.00;60.60
72576;DHT22;60613;48.658;2.328;2022-10-23T18:45:26;22.90;61.10
72576;DHT22;60613;48.658;2.328;2022-10-23T18:47:52;22.90;61.00
72576;DHT22;60613;48.658;2.328;2022-10-23T18:50:18;22.90;60.60
72576;DHT22;60613;48.658;2.328;2022-10-23T18:52:43;22.90;60.70
72576;DHT22;60613;48.658;2.328;2022-10-23T18:55:10;22.90;60.90
72576;DHT22;60613;48.658;2.328;2022-10-23T18:57:36;22.90;60.60
72576;DHT22;60613;48.658;2.328;2022-10-23T19:00:04;23.00;60.80
72576;DHT22;60613;48.658;2.328;2022-10-23T19:02:30;23.00;61.90
72576;DHT22;60613;48.658;2.328;2022-10-23T19:04:55;23.00;60.90
72576;DHT22;60613;48.658;2.328;2022-10-23T19:07:21;23.00;60.90
72576;DHT22;60613;48.658;2.328;2022-10-23T19:09:47;22.90;62.10
72576;DHT22;60613;48.658;2.328;2022-10-23T19:12:13;22.90;60.90
72576;DHT22;60613;48.658;2.328;2022-10-23T19:14:38;22.90;61.10
72576;DHT22;60613;48.658;2.328;2022-10-23T19:17:12;22.90;62.20
72576;DHT22;60613;48.658;2.328;2022-10-23T19:19:42;22.90;61.00
72576;DHT22;60613;48.658;2.328;2022-10-23T19:22:11;22.90;61.50
72576;DHT22;60613;48.658;2.328;2022-10-23T19:24:41;22.90;61.30
72576;DHT22;60613;48.658;2.328;2022-10-23T19:27:08;22.90;61.50
72576;DHT22;60613;48.658;2.328;2022-10-23T19:29:37;22.90;61.50
72576;DHT22;60613;48.658;2.328;2022-10-23T19:32:05;22.90;61.40
72576;DHT22;60613;48.658;2.328;2022-10-23T19:34:31;22.90;61.80
72576;DHT22;60613;48.658;2.328;2022-10-23T19:36:56;22.80;61.70
72576;DHT22;60613;48.658;2.328;2022-10-23T19:39:22;22.90;61.00
72576;DHT22;60613;48.658;2.328;2022-10-23T19:41:49;22.90;61.50
72576;DHT22;60613;48.658;2.328;2022-10-23T19:44:16;22.90;60.80
72576;DHT22;60613;48.658;2.328;2022-10-23T19:46:41;23.00;60.70
72576;DHT22;60613;48.658;2.328;2022-10-23T19:49:07;23.10;60.30
72576;DHT22;60613;48.658;2.328;2022-10-23T19:51:33;23.10;61.30
72576;DHT22;60613;48.658;2.328;2022-10-23T19:53:59;23.10;60.70
72576;DHT22;60613;48.658;2.328;2022-10-23T19:56:25;23.00;60.70
72576;DHT22;60613;48.658;2.328;2022-10-23T19:58:51;23.00;60.90
72576;DHT22;60613;48.658;2.328;2022-10-23T20:01:19;23.00;60.90
72576;DHT22;60613;48.658;2.328;2022-10-23T20:03:46;22.90;61.10
72576;DHT22;60613;48.658;2.328;2022-10-23T20:06:18;22.90;61.10
72576;DHT22;60613;48.658;2.328;2022-10-23T20:08:43;22.90;60.90
72576;DHT22;60613;48.658;2.328;2022-10-23T20:11:18;22.90;60.90
72576;DHT22;60613;48.658;2.328;2022-10-23T20:13:44;22.90;61.00
72576;DHT22;60613;48.658;2.328;2022-10-23T20:16:18;22.80;61.00
72576;DHT22;60613;48.658;2.328;2022-10-23T20:18:44;22.80;61.40
72576;DHT22;60613;48.658;2.328;2022-10-23T20:21:09;22.80;61.50
72576;DHT22;60613;48.658;2.328;2022-10-23T20:23:35;22.80;61.40
72576;DHT22;60613;48.658;2.328;2022-10-23T20:26:05;22.80;61.20
72576;DHT22;60613;48.658;2.328;2022-10-23T20:28:31;22.80;61.50
72576;DHT22;60613;48.658;2.328;2022-10-23T20:30:57;22.80;61.50
72576;DHT22;60613;48.658;2.328;2022-10-23T20:33:26;22.80;61.50
72576;DHT22;60613;48.658;2.328;2022-10-23T20:35:51;22.80;61.50
72576;DHT22;60613;48.658;2.328;2022-10-23T20:38:17;22.80;61.50
72576;DHT22;60613;48.658;2.328;2022-10-23T20:40:42;22.80;61.50
72576;DHT22;60613;48.658;2.328;2022-10-23T20:43:08;22.80;61.10
72576;DHT22;60613;48.658;2.328;2022-10-23T20:45:34;22.80;61.50
72576;DHT22;60613;48.658;2.328;2022-10-23T20:47:59;22.80;61.60
72576;DHT22;60613;48.658;2.328;2022-10-23T20:50:25;22.80;61.20
72576;DHT22;60613;48.658;2.328;2022-10-23T20:52:51;22.80;61.20
72576;DHT22;60613;48.658;2.328;2022-10-23T20:55:17;22.80;61.40
72576;DHT22;60613;48.658;2.328;2022-10-23T20:57:42;22.80;61.30
